createdAt,value
2019-04-04T00:02:08.032Z,42.50
2019-04-04T00:04:40.156Z,42.70
2019-04-04T00:07:10.980Z,42.70
2019-04-04T00:09:41.995Z,43.10
2019-04-04T00:12:14.194Z,43.40
2019-04-04T00:14:45.434Z,43.50
2019-04-04T00:17:16.588Z,43.70
2019-04-04T00:19:47.482Z,43.70
2019-04-04T00:22:18.308Z,43.60
2019-04-04T00:24:49.193Z,43.70
2019-04-04T00:27:20.345Z,43.60
2019-04-04T00:29:51.600Z,43.80
2019-04-04T00:32:22.509Z,43.90
2019-04-04T00:34:53.462Z,43.80
2019-04-04T00:37:24.491Z,44.00
2019-04-04T00:39:55.784Z,44.00
2019-04-04T00:42:26.631Z,44.20
2019-04-04T00:44:57.774Z,44.20
2019-04-04T00:47:28.837Z,44.30
2019-04-04T00:49:59.872Z,44.30
2019-04-04T00:52:30.732Z,44.40
2019-04-04T00:55:01.630Z,44.40
2019-04-04T00:57:32.976Z,44.50
2019-04-04T01:00:04.385Z,44.60
2019-04-04T01:02:35.675Z,44.70
2019-04-04T01:05:07.277Z,45.60
2019-04-04T01:07:38.107Z,44.90
2019-04-04T01:10:09.479Z,44.70
2019-04-04T01:12:40.790Z,44.90
2019-04-04T01:15:12.485Z,45.00
2019-04-04T01:17:43.637Z,45.10
2019-04-04T01:20:15.127Z,45.20
2019-04-04T01:22:45.967Z,45.40
2019-04-04T01:25:17.244Z,45.40
2019-04-04T01:27:48.085Z,45.20
2019-04-04T01:30:19.251Z,45.30
2019-04-04T01:32:50.402Z,45.50
2019-04-04T01:35:22.805Z,45.60
2019-04-04T01:37:54.131Z,45.80
2019-04-04T01:40:24.957Z,46.00
2019-04-04T01:42:56.206Z,46.00
2019-04-04T01:45:27.471Z,45.90
2019-04-04T01:47:58.685Z,46.10
2019-04-04T01:50:29.528Z,46.30
2019-04-04T01:53:00.369Z,46.30
2019-04-04T01:55:32.934Z,46.60
2019-04-04T01:58:03.761Z,46.70
2019-04-04T02:00:34.630Z,46.80
2019-04-04T02:03:05.981Z,46.90
2019-04-04T02:05:37.133Z,47.00
2019-04-04T02:08:08.405Z,47.00
2019-04-04T02:10:39.240Z,47.10
2019-04-04T02:13:10.535Z,47.50
2019-04-04T02:15:42.827Z,47.50
2019-04-04T02:18:14.121Z,47.40
2019-04-04T02:20:44.925Z,47.40
2019-04-04T02:23:16.092Z,47.40
2019-04-04T02:25:47.309Z,47.90
2019-04-04T02:28:18.564Z,47.70
2019-04-04T02:30:49.809Z,47.90
2019-04-04T02:33:21.088Z,47.30
2019-04-04T02:35:52.325Z,47.70
2019-04-04T02:38:27.178Z,48.90
2019-04-04T02:40:55.820Z,48.50
2019-04-04T02:43:28.395Z,48.30
2019-04-04T02:45:59.206Z,48.30
2019-04-04T02:48:30.283Z,48.60
2019-04-04T02:51:01.438Z,48.60
2019-04-04T02:53:36.238Z,48.50
2019-04-04T02:56:07.428Z,48.50
2019-04-04T02:58:38.653Z,48.40
2019-04-04T03:01:09.793Z,48.50
2019-04-04T03:03:41.996Z,48.60
2019-04-04T03:06:13.545Z,48.90
2019-04-04T03:08:44.695Z,49.00
2019-04-04T03:11:16.021Z,49.30
2019-04-04T03:13:47.305Z,49.30
2019-04-04T03:16:20.978Z,49.40
2019-04-04T03:18:51.666Z,49.50
2019-04-04T03:21:23.720Z,49.60
2019-04-04T03:23:55.006Z,49.60
2019-04-04T03:26:26.542Z,50.00
2019-04-04T03:28:57.522Z,49.80
2019-04-04T03:31:36.155Z,49.90
2019-04-04T03:34:08.954Z,49.90
2019-04-04T03:36:34.001Z,49.90
2019-04-04T03:39:07.173Z,50.20
2019-04-04T03:41:38.385Z,50.20
2019-04-04T03:44:10.015Z,50.20
2019-04-04T03:46:41.295Z,50.40
2019-04-04T03:49:12.505Z,50.30
2019-04-04T03:51:43.845Z,50.40
2019-04-04T03:54:22.188Z,50.40
2019-04-04T03:56:55.306Z,50.50
2019-04-04T03:59:26.559Z,50.60
2019-04-04T04:01:57.829Z,50.60
2019-04-04T04:04:31.495Z,50.70
2019-04-04T04:07:02.553Z,50.70
2019-04-04T04:09:33.959Z,50.80
2019-04-04T04:12:10.180Z,50.70
2019-04-04T04:14:38.102Z,50.80
2019-04-04T04:17:09.103Z,50.80
2019-04-04T04:19:41.449Z,51.00
2019-04-04T04:22:13.195Z,51.60
2019-04-04T04:24:45.538Z,51.00
2019-04-04T04:27:16.989Z,51.10
2019-04-04T04:29:48.130Z,51.00
2019-04-04T04:32:21.779Z,49.80
2019-04-04T04:34:52.370Z,48.10
2019-04-04T04:37:23.517Z,45.40
2019-04-04T04:39:54.394Z,43.30
2019-04-04T04:42:26.606Z,42.20
2019-04-04T04:44:58.318Z,42.20
2019-04-04T04:47:29.662Z,42.20
2019-04-04T04:50:00.820Z,41.00
2019-04-04T04:52:32.124Z,40.30
2019-04-04T04:55:03.303Z,39.60
2019-04-04T04:57:37.136Z,39.00
2019-04-04T05:00:07.923Z,38.30
2019-04-04T05:02:39.372Z,37.70
2019-04-04T05:05:10.580Z,37.80
2019-04-04T05:07:41.555Z,36.50
2019-04-04T05:10:15.069Z,36.20
2019-04-04T05:12:46.874Z,35.70
2019-04-04T05:15:21.253Z,35.00
2019-04-04T05:17:51.511Z,34.10
2019-04-04T05:20:23.170Z,33.70
2019-04-04T05:22:55.347Z,32.20
2019-04-04T05:25:30.860Z,31.90
2019-04-04T05:28:00.815Z,31.00
2019-04-04T05:30:33.204Z,31.40
2019-04-04T05:33:04.049Z,30.80
2019-04-04T05:35:37.578Z,30.00
2019-04-04T05:38:07.979Z,30.20
2019-04-04T05:40:39.038Z,30.20
2019-04-04T05:43:09.855Z,29.90
2019-04-04T05:45:41.049Z,29.10
2019-04-04T05:48:12.198Z,28.70
2019-04-04T05:50:43.603Z,28.50
2019-04-04T05:53:15.274Z,28.10
2019-04-04T05:55:46.173Z,27.70
2019-04-04T05:58:17.576Z,28.60
2019-04-04T06:00:48.879Z,27.90
2019-04-04T06:03:19.807Z,27.60
2019-04-04T06:05:50.636Z,27.40
2019-04-04T06:08:21.481Z,27.10
2019-04-04T06:10:52.293Z,26.50
2019-04-04T06:13:25.012Z,26.10
2019-04-04T06:15:56.033Z,26.80
2019-04-04T06:18:26.885Z,27.40
2019-04-04T06:20:57.725Z,26.40
2019-04-04T06:23:28.583Z,26.10
2019-04-04T06:25:59.481Z,25.80
2019-04-04T06:28:30.416Z,25.40
2019-04-04T06:31:01.254Z,23.80
2019-04-04T06:33:33.087Z,23.20
2019-04-04T06:36:04.944Z,23.80
2019-04-04T06:38:36.167Z,23.20
2019-04-04T06:41:07.006Z,23.70
2019-04-04T06:43:37.834Z,23.40
2019-04-04T06:46:09.014Z,22.60
2019-04-04T06:48:39.240Z,22.90
2019-04-04T06:51:10.042Z,22.70
2019-04-04T06:53:40.868Z,22.40
2019-04-04T06:56:11.689Z,23.80
2019-04-04T06:58:42.578Z,22.80
2019-04-04T07:01:13.405Z,23.20
2019-04-04T07:03:44.239Z,23.20
2019-04-04T07:06:15.145Z,22.20
2019-04-04T07:08:46.784Z,21.00
2019-04-04T07:11:21.363Z,20.80
2019-04-04T07:13:50.773Z,21.10
2019-04-04T07:16:21.580Z,21.40
2019-04-04T07:18:52.408Z,21.80
2019-04-04T07:21:23.292Z,22.50
2019-04-04T07:23:54.349Z,21.50
2019-04-04T07:26:25.213Z,22.10
2019-04-04T07:28:57.290Z,23.10
2019-04-04T07:31:28.130Z,21.90
2019-04-04T07:33:59.360Z,21.80
2019-04-04T07:36:30.213Z,22.30
2019-04-04T07:39:01.119Z,21.60
2019-04-04T07:41:33.640Z,21.60
2019-04-04T07:44:04.585Z,21.40
2019-04-04T07:46:35.791Z,22.60
2019-04-04T07:49:06.654Z,21.40
2019-04-04T07:51:37.484Z,21.40
2019-04-04T07:54:08.306Z,20.00
2019-04-04T07:56:39.162Z,20.40
2019-04-04T07:59:10.085Z,20.20
2019-04-04T08:01:50.686Z,19.60
2019-04-04T08:04:13.487Z,22.00
2019-04-04T08:06:44.309Z,20.60
2019-04-04T08:09:15.144Z,19.60
2019-04-04T08:11:45.998Z,20.60
2019-04-04T08:14:17.197Z,19.20
2019-04-04T08:16:49.051Z,18.90
2019-04-04T08:19:20.309Z,20.70
2019-04-04T08:21:51.148Z,19.80
2019-04-04T08:24:22.088Z,19.60
2019-04-04T08:26:52.905Z,18.30
2019-04-04T08:29:23.844Z,19.30
2019-04-04T08:31:54.959Z,19.00
2019-04-04T08:34:25.799Z,19.50
2019-04-04T08:36:56.668Z,19.80
2019-04-04T08:39:27.625Z,20.90
2019-04-04T08:41:58.460Z,20.20
2019-04-04T08:44:29.332Z,20.40
2019-04-04T08:47:00.535Z,19.90
2019-04-04T08:49:32.458Z,19.80
2019-04-04T08:52:16.181Z,19.20
2019-04-04T08:54:36.841Z,20.40
2019-04-04T08:57:08.029Z,20.50
2019-04-04T08:59:38.862Z,20.90
2019-04-04T09:02:09.696Z,22.10
2019-04-04T09:04:40.525Z,22.20
2019-04-04T09:07:11.358Z,21.80
2019-04-04T09:09:42.638Z,21.70
2019-04-04T09:12:13.549Z,22.10
2019-04-04T09:14:44.407Z,22.10
2019-04-04T09:17:15.530Z,22.30
2019-04-04T09:19:46.405Z,22.90
2019-04-04T09:22:17.248Z,22.50
2019-04-04T09:24:48.108Z,23.50
2019-04-04T09:27:18.932Z,23.80
2019-04-04T09:29:49.904Z,23.70
2019-04-04T09:32:20.744Z,22.90
2019-04-04T09:34:52.149Z,22.20
2019-04-04T09:37:24.995Z,22.00
2019-04-04T09:39:56.271Z,23.10
2019-04-04T09:42:27.103Z,22.00
2019-04-04T09:44:57.969Z,22.00
2019-04-04T09:47:28.785Z,23.50
2019-04-04T09:49:59.654Z,23.70
2019-04-04T09:52:30.526Z,23.90
2019-04-04T09:55:01.402Z,23.70
2019-04-04T09:57:32.254Z,23.10
2019-04-04T10:00:03.250Z,23.50
2019-04-04T10:02:35.692Z,23.60
2019-04-04T10:05:07.229Z,23.80
2019-04-04T10:07:38.245Z,24.00
2019-04-04T10:10:09.845Z,23.80
2019-04-04T10:12:40.726Z,24.30
2019-04-04T10:15:12.240Z,25.20
2019-04-04T10:17:43.191Z,24.10
2019-04-04T10:20:14.177Z,24.70
2019-04-04T10:22:45.085Z,24.90
2019-04-04T10:25:15.969Z,25.80
2019-04-04T10:27:46.817Z,25.20
2019-04-04T10:30:18.260Z,24.90
2019-04-04T10:32:49.086Z,25.00
2019-04-04T10:35:20.061Z,25.80
2019-04-04T10:37:50.864Z,25.60
2019-04-04T10:40:21.831Z,26.10
2019-04-04T10:42:52.640Z,25.60
2019-04-04T10:45:24.610Z,25.70
2019-04-04T10:47:55.792Z,25.80
2019-04-04T10:50:26.645Z,25.40
2019-04-04T10:52:57.480Z,25.80
2019-04-04T10:55:28.332Z,25.50
2019-04-04T10:57:59.348Z,25.20
2019-04-04T11:00:30.184Z,25.60
2019-04-04T11:03:01.159Z,25.30
2019-04-04T11:05:35.232Z,25.90
2019-04-04T11:08:05.494Z,26.70
2019-04-04T11:10:36.379Z,26.70
2019-04-04T11:13:07.213Z,26.50
2019-04-04T11:15:38.060Z,26.40
2019-04-04T11:18:08.934Z,26.40
2019-04-04T11:20:39.782Z,26.40
2019-04-04T11:23:10.773Z,26.30
2019-04-04T11:25:42.745Z,26.80
2019-04-04T11:28:13.864Z,26.80
2019-04-04T11:30:44.922Z,26.40
2019-04-04T11:33:16.181Z,26.10
2019-04-04T11:35:47.163Z,26.00
2019-04-04T11:38:18.562Z,26.20
2019-04-04T11:40:49.813Z,26.80
2019-04-04T11:43:20.654Z,26.70
2019-04-04T11:45:51.508Z,27.00
2019-04-04T11:48:22.325Z,26.70
2019-04-04T11:50:53.173Z,26.90
2019-04-04T11:53:24.204Z,26.70
2019-04-04T11:55:55.352Z,27.10
2019-04-04T11:58:26.502Z,27.10
2019-04-04T12:00:58.124Z,27.30
2019-04-04T12:03:29.294Z,27.20
2019-04-04T12:06:00.165Z,27.10
2019-04-04T12:08:30.975Z,26.90
2019-04-04T12:11:01.817Z,27.20
2019-04-04T12:13:32.663Z,27.50
2019-04-04T12:16:03.692Z,27.50
2019-04-04T12:18:34.565Z,27.30
2019-04-04T12:21:05.896Z,27.30
2019-04-04T12:23:36.874Z,27.20
2019-04-04T12:26:07.961Z,27.80
2019-04-04T12:28:38.787Z,27.80
2019-04-04T12:31:09.645Z,27.70
2019-04-04T12:33:40.462Z,27.50
2019-04-04T12:36:23.839Z,28.00
2019-04-04T12:38:43.794Z,28.00
2019-04-04T12:41:14.720Z,27.70
2019-04-04T12:43:45.552Z,27.50
2019-04-04T12:46:16.428Z,27.20
2019-04-04T12:48:47.268Z,27.80
2019-04-04T12:51:18.120Z,27.80
2019-04-04T12:53:49.396Z,27.40
2019-04-04T12:56:21.241Z,26.90
2019-04-04T12:58:52.422Z,27.00
2019-04-04T13:01:23.302Z,26.70
2019-04-04T13:03:54.533Z,27.20
2019-04-04T13:06:25.728Z,27.10
2019-04-04T13:08:56.569Z,27.20
2019-04-04T13:11:27.433Z,27.00
2019-04-04T13:13:58.289Z,27.00
2019-04-04T13:16:29.131Z,27.10
2019-04-04T13:18:59.997Z,26.90
2019-04-04T13:21:31.361Z,27.00
2019-04-04T13:24:02.199Z,27.00
2019-04-04T13:26:33.108Z,27.00
2019-04-04T13:29:04.426Z,26.90
2019-04-04T13:31:35.299Z,26.80
2019-04-04T13:34:06.155Z,26.90
2019-04-04T13:36:37.998Z,27.10
2019-04-04T13:39:11.140Z,27.00
2019-04-04T13:41:42.055Z,27.00
2019-04-04T13:44:12.900Z,26.90
2019-04-04T13:46:43.748Z,26.90
2019-04-04T13:49:14.612Z,27.30
2019-04-04T13:51:45.445Z,27.10
2019-04-04T13:54:17.291Z,27.00
2019-04-04T13:56:48.170Z,26.90
2019-04-04T13:59:18.998Z,27.00
2019-04-04T14:01:49.933Z,27.30
2019-04-04T14:04:24.313Z,27.20
2019-04-04T14:06:53.331Z,26.60
2019-04-04T14:09:24.197Z,26.80
2019-04-04T14:11:55.034Z,26.90
2019-04-04T14:14:25.908Z,27.10
2019-04-04T14:16:56.773Z,27.20
2019-04-04T14:19:31.401Z,27.20
2019-04-04T14:22:01.085Z,27.30
2019-04-04T14:24:31.949Z,27.40
2019-04-04T14:27:02.821Z,27.30
2019-04-04T14:29:33.640Z,27.40
2019-04-04T14:32:04.528Z,27.40
2019-04-04T14:34:35.394Z,27.60
2019-04-04T14:37:06.704Z,27.20
2019-04-04T14:39:37.561Z,27.00
2019-04-04T14:42:09.568Z,27.20
2019-04-04T14:44:40.335Z,27.40
2019-04-04T14:47:11.210Z,27.30
2019-04-04T14:49:45.092Z,27.30
2019-04-04T14:52:14.520Z,26.80
2019-04-04T14:54:45.367Z,26.80
2019-04-04T14:57:16.264Z,26.50
2019-04-04T14:59:47.090Z,26.40
2019-04-04T15:02:19.311Z,26.50
2019-04-04T15:04:50.459Z,26.90
2019-04-04T15:07:21.376Z,27.00
2019-04-04T15:09:52.202Z,27.00
2019-04-04T15:12:23.097Z,26.80
2019-04-04T15:14:53.946Z,27.00
2019-04-04T15:17:24.832Z,27.10
2019-04-04T15:19:55.846Z,26.80
2019-04-04T15:22:27.698Z,26.90
2019-04-04T15:24:58.597Z,26.80
2019-04-04T15:27:29.498Z,27.00
2019-04-04T15:30:00.480Z,26.90
2019-04-04T15:32:32.406Z,27.20
2019-04-04T15:35:03.345Z,27.80
2019-04-04T15:37:34.242Z,27.60
2019-04-04T15:40:05.945Z,27.70
2019-04-04T15:42:36.825Z,27.60
2019-04-04T15:45:08.069Z,27.90
2019-04-04T15:47:40.096Z,28.10
2019-04-04T15:50:11.790Z,28.00
2019-04-04T15:52:42.705Z,28.20
2019-04-04T15:55:16.249Z,28.10
2019-04-04T15:57:47.105Z,28.20
2019-04-04T16:00:18.214Z,28.30
2019-04-04T16:02:49.264Z,28.40
2019-04-04T16:05:20.296Z,28.20
2019-04-04T16:07:51.217Z,28.40
2019-04-04T16:10:22.053Z,28.70
2019-04-04T16:12:52.988Z,28.30
2019-04-04T16:15:23.990Z,28.50
2019-04-04T16:17:54.866Z,28.50
2019-04-04T16:20:26.871Z,28.60
2019-04-04T16:22:57.812Z,28.70
2019-04-04T16:25:29.715Z,29.00
2019-04-04T16:28:00.650Z,28.50
2019-04-04T16:30:31.575Z,28.70
2019-04-04T16:33:02.513Z,28.80
2019-04-04T16:35:33.589Z,28.80
2019-04-04T16:38:04.720Z,29.20
2019-04-04T16:40:35.712Z,29.40
2019-04-04T16:43:06.629Z,29.40
2019-04-04T16:45:38.187Z,29.50
2019-04-04T16:48:09.346Z,29.70
2019-04-04T16:50:40.307Z,30.20
2019-04-04T16:53:11.268Z,29.90
2019-04-04T16:55:42.195Z,30.10
2019-04-04T16:58:13.111Z,30.10
2019-04-04T17:00:44.007Z,30.20
2019-04-04T17:03:15.368Z,30.40
2019-04-04T17:06:14.236Z,30.50
2019-04-04T17:08:52.051Z,30.70
2019-04-04T17:11:42.412Z,31.00
2019-04-04T17:14:46.587Z,30.90
2019-04-04T17:17:25.570Z,31.10
2019-04-04T17:20:11.146Z,31.00
2019-04-04T17:22:53.359Z,31.50
2019-04-04T17:25:56.128Z,31.70
2019-04-04T17:28:34.123Z,32.10
2019-04-04T17:31:10.318Z,31.70
2019-04-04T17:33:43.390Z,31.70
2019-04-04T17:36:14.698Z,32.10
2019-04-04T17:38:46.073Z,32.00
2019-04-04T17:41:17.460Z,31.90
2019-04-04T17:43:49.534Z,32.20
2019-04-04T17:46:20.631Z,32.30
2019-04-04T17:48:51.761Z,32.10
2019-04-04T17:51:23.974Z,32.30
2019-04-04T17:53:54.872Z,32.30
2019-04-04T17:56:26.029Z,32.50
2019-04-04T17:59:01.103Z,32.50
2019-04-04T18:01:34.344Z,32.40
2019-04-04T18:04:05.008Z,32.70
2019-04-04T18:06:36.032Z,32.90
2019-04-04T18:09:09.348Z,33.00
2019-04-04T18:11:42.749Z,33.40
2019-04-04T18:14:13.680Z,33.40
2019-04-04T18:16:44.636Z,33.40
2019-04-04T18:19:15.724Z,33.40
2019-04-04T18:21:46.655Z,33.70
2019-04-04T18:24:18.350Z,34.30
2019-04-04T18:26:50.732Z,33.80
2019-04-04T18:29:21.654Z,34.60
2019-04-04T18:31:52.599Z,34.30
2019-04-04T18:34:23.498Z,34.10
2019-04-04T18:36:54.510Z,34.10
2019-04-04T18:39:26.614Z,34.40
2019-04-04T18:41:57.653Z,34.60
2019-04-04T18:44:33.861Z,35.00
2019-04-04T18:47:05.147Z,34.90
2019-04-04T18:49:36.102Z,35.30
2019-04-04T18:52:07.133Z,35.50
2019-04-04T18:54:38.108Z,36.00
2019-04-04T18:57:09.011Z,36.40
2019-04-04T18:59:39.989Z,37.30
2019-04-04T19:02:11.412Z,36.80
2019-04-04T19:04:42.358Z,36.90
2019-04-04T19:07:13.546Z,36.80
2019-04-04T19:09:45.014Z,37.00
2019-04-04T19:12:17.077Z,37.10
2019-04-04T19:14:47.935Z,37.20
2019-04-04T19:17:18.827Z,37.40
2019-04-04T19:19:49.744Z,37.40
2019-04-04T19:22:20.899Z,38.30
2019-04-04T19:24:51.796Z,37.80
2019-04-04T19:27:25.103Z,37.70
2019-04-04T19:29:56.122Z,37.80
2019-04-04T19:32:27.208Z,37.80
2019-04-04T19:34:58.169Z,37.90
2019-04-04T19:37:29.103Z,38.00
2019-04-04T19:40:00.082Z,37.90
2019-04-04T19:42:31.052Z,37.90
2019-04-04T19:45:02.124Z,38.00
2019-04-04T19:47:33.136Z,37.90
2019-04-04T19:50:04.327Z,38.10
2019-04-04T19:52:35.226Z,38.50
2019-04-04T19:55:06.677Z,38.30
2019-04-04T19:57:37.632Z,38.50
2019-04-04T20:00:09.915Z,38.10
2019-04-04T20:02:43.693Z,38.40
2019-04-04T20:05:13.504Z,38.40
2019-04-04T20:07:44.500Z,38.60
2019-04-04T20:10:16.593Z,38.90
2019-04-04T20:12:47.556Z,39.00
2019-04-04T20:15:18.537Z,38.80
2019-04-04T20:17:50.203Z,38.60
2019-04-04T20:20:21.128Z,38.80
2019-04-04T20:22:53.601Z,38.70
2019-04-04T20:25:24.516Z,39.30
2019-04-04T20:27:56.212Z,39.00
2019-04-04T20:30:40.347Z,38.90
2019-04-04T20:33:11.262Z,38.90
2019-04-04T20:35:42.247Z,38.80
2019-04-04T20:38:13.160Z,38.90
2019-04-04T20:40:44.058Z,38.90
2019-04-04T20:43:15.948Z,39.00
2019-04-04T20:45:47.042Z,39.10
2019-04-04T20:48:18.591Z,39.30
2019-04-04T20:50:49.491Z,39.30
2019-04-04T20:53:22.193Z,39.40
2019-04-04T20:55:53.930Z,39.40
2019-04-04T20:58:25.009Z,39.70
2019-04-04T21:00:56.317Z,39.40
2019-04-04T21:03:27.224Z,39.60
2019-04-04T21:05:58.058Z,39.70
2019-04-04T21:08:29.294Z,39.70
2019-04-04T21:11:00.164Z,39.80
2019-04-04T21:13:31.033Z,39.90
2019-04-04T21:16:01.940Z,40.10
2019-04-04T21:18:32.854Z,40.10
2019-04-04T21:21:04.721Z,40.10
2019-04-04T21:23:35.583Z,40.30
2019-04-04T21:26:06.461Z,40.30
2019-04-04T21:28:37.325Z,40.50
2019-04-04T21:31:08.184Z,40.70
2019-04-04T21:33:39.024Z,40.90
2019-04-04T21:36:09.889Z,40.90
2019-04-04T21:38:40.801Z,41.00
2019-04-04T21:41:13.301Z,41.20
2019-04-04T21:43:44.552Z,41.10
2019-04-04T21:46:15.571Z,41.00
2019-04-04T21:48:46.457Z,41.20
2019-04-04T21:51:17.342Z,41.50
2019-04-04T21:53:48.243Z,41.70
2019-04-04T21:56:19.114Z,41.90
2019-04-04T21:58:50.321Z,42.10
2019-04-04T22:01:21.177Z,42.30
2019-04-04T22:03:53.678Z,42.40
2019-04-04T22:06:24.544Z,42.80
2019-04-04T22:08:55.408Z,42.70
2019-04-04T22:11:26.267Z,43.00
2019-04-04T22:13:57.151Z,42.60
2019-04-04T22:16:27.985Z,43.30
2019-04-04T22:18:59.248Z,42.90
2019-04-04T22:21:30.118Z,43.20
2019-04-04T22:24:01.005Z,43.30
2019-04-04T22:26:31.862Z,43.50
2019-04-04T22:29:02.809Z,43.20
2019-04-04T22:31:33.677Z,43.20
2019-04-04T22:34:04.660Z,43.40
2019-04-04T22:36:35.492Z,43.30
2019-04-04T22:39:08.186Z,43.30
2019-04-04T22:41:39.026Z,43.40
2019-04-04T22:44:09.897Z,43.60
2019-04-04T22:46:40.728Z,44.00
2019-04-04T22:49:11.568Z,44.10
2019-04-04T22:51:42.404Z,44.30
2019-04-04T22:54:13.271Z,44.20
2019-04-04T22:56:44.096Z,44.20
2019-04-04T22:59:14.977Z,44.20
2019-04-04T23:01:45.817Z,44.10
2019-04-04T23:04:16.792Z,44.30
2019-04-04T23:06:47.611Z,44.30
2019-04-04T23:09:18.494Z,44.60
2019-04-04T23:11:49.312Z,44.70
2019-04-04T23:14:20.152Z,44.80
2019-04-04T23:16:51.300Z,44.90
2019-04-04T23:19:22.174Z,44.90
2019-04-04T23:21:53.010Z,44.90
2019-04-04T23:24:23.928Z,44.80
2019-04-04T23:26:54.743Z,45.00
2019-04-04T23:29:25.595Z,45.30
2019-04-04T23:31:56.413Z,45.40
2019-04-04T23:34:27.259Z,45.80
2019-04-04T23:36:58.575Z,46.20
2019-04-04T23:39:29.456Z,46.40
2019-04-04T23:42:00.284Z,46.10
2019-04-04T23:44:31.130Z,46.30
2019-04-04T23:47:02.975Z,46.30
2019-04-04T23:49:33.821Z,46.40
2019-04-04T23:52:04.758Z,46.50
2019-04-04T23:54:35.628Z,46.40
2019-04-04T23:57:06.596Z,46.80
2019-04-04T23:59:37.585Z,46.90
